Time;durP1;ratioP1;P1;durP2;ratioP2;P2;SDS_P1;SDS_P2;PMS_P1;PMS_P2;Temp;Humidity;BMP_temperature;BMP_pressure;BME280_temperature;BME280_humidity;BME280_pressure;Samples;Min_cycle;Max_cycle;Signal;HPM_P1;HPM_P2
2022/09/26 00:02:21;;;;;;;4.60;1.07;;;11.50;91.40;;;;;;5067344;28;20515;-68
2022/09/26 00:04:46;;;;;;;3.00;0.93;;;11.50;91.50;;;;;;5071868;28;20477;-68
2022/09/26 00:07:12;;;;;;;4.07;0.90;;;11.50;91.40;;;;;;5032747;28;20509;-68
2022/09/26 00:09:38;;;;;;;4.43;1.10;;;11.60;91.30;;;;;;5054605;28;20443;-68
2022/09/26 00:12:04;;;;;;;4.93;0.97;;;11.60;91.10;;;;;;5051806;28;20935;-68
2022/09/26 00:14:30;;;;;;;7.27;0.90;;;11.60;90.90;;;;;;5066761;28;20420;-68
2022/09/26 00:16:56;;;;;;;4.90;0.60;;;11.60;90.80;;;;;;5024565;28;20282;-68
2022/09/26 00:19:22;;;;;;;5.13;0.87;;;11.60;90.60;;;;;;5067143;28;20036;-68
2022/09/26 00:21:47;;;;;;;4.97;1.07;;;11.60;90.30;;;;;;5050378;28;20047;-68
2022/09/26 00:24:14;;;;;;;2.33;0.53;;;11.60;90.10;;;;;;5067088;28;20339;-68
2022/09/26 00:26:39;;;;;;;2.10;0.50;;;11.60;90.00;;;;;;5033906;28;20583;-68
2022/09/26 00:29:09;;;;;;;4.43;0.53;;;11.60;89.50;;;;;;5045070;28;20279;-68
2022/09/26 00:31:38;;;;;;;2.03;0.37;;;11.60;89.60;;;;;;5049822;28;20087;-68
2022/09/26 00:34:04;;;;;;;2.40;0.60;;;11.60;89.30;;;;;;5051309;28;20341;-68
2022/09/26 00:36:30;;;;;;;2.87;0.70;;;11.60;89.20;;;;;;5055075;28;20310;-70
2022/09/26 00:38:56;;;;;;;3.73;0.70;;;11.60;88.60;;;;;;5066820;28;20047;-71
2022/09/26 00:41:22;;;;;;;2.73;0.33;;;11.70;88.40;;;;;;5066596;28;20405;-71
2022/09/26 00:43:53;;;;;;;5.60;0.87;;;11.60;88.30;;;;;;5066171;28;20123;-71
2022/09/26 00:46:41;;;;;;;2.83;0.50;;;11.60;87.90;;;;;;5068241;28;20286;-71
2022/09/26 00:49:36;;;;;;;2.23;0.30;;;11.70;87.40;;;;;;5042404;28;20845;-71
2022/09/26 00:52:25;;;;;;;2.85;0.40;;;11.70;86.80;;;;;;5061520;28;20778;-71
2022/09/26 00:54:55;;;;;;;2.47;0.60;;;11.70;86.80;;;;;;5044576;28;20049;-71
2022/09/26 00:57:31;;;;;;;2.53;0.53;;;11.70;87.10;;;;;;5071315;28;20274;-71
2022/09/26 01:00:07;;;;;;;1.13;0.50;;;11.70;86.90;;;;;;5066411;28;20279;-71
2022/09/26 01:02:33;;;;;;;6.73;0.90;;;11.70;86.70;;;;;;5071592;28;20613;-70
2022/09/26 01:05:00;;;;;;;4.63;0.80;;;11.70;86.20;;;;;;5085837;28;20282;-70
2022/09/26 01:07:27;;;;;;;3.27;0.93;;;11.70;86.30;;;;;;5049244;28;20305;-71
2022/09/26 01:09:53;;;;;;;2.10;0.60;;;11.70;86.10;;;;;;5066215;28;20348;-71
2022/09/26 01:12:21;;;;;;;4.80;0.77;;;11.70;86.20;;;;;;5049088;28;20290;-70
2022/09/26 01:14:50;;;;;;;3.27;0.70;;;11.70;86.50;;;;;;5071861;28;20360;-71
2022/09/26 01:17:16;;;;;;;4.90;1.20;;;11.80;87.10;;;;;;5066977;28;20317;-71
2022/09/26 01:20:00;;;;;;;3.83;1.50;;;11.80;88.10;;;;;;5072020;28;20889;-70
2022/09/26 01:22:53;;;;;;;6.50;1.23;;;11.80;88.50;;;;;;5069451;28;20053;-71
2022/09/26 01:25:28;;;;;;;7.13;0.93;;;11.90;89.00;;;;;;5064291;28;20291;-71
2022/09/26 01:28:36;;;;;;;5.75;1.42;;;11.90;89.70;;;;;;5069175;28;20279;-71
2022/09/26 01:31:23;;;;;;;7.53;1.63;;;11.90;89.70;;;;;;5039443;28;20040;-71
2022/09/26 01:33:58;;;;;;;5.07;0.93;;;11.90;90.30;;;;;;5049205;28;20295;-71
2022/09/26 01:36:59;;;;;;;5.93;1.10;;;11.90;90.70;;;;;;5065488;28;20278;-71
2022/09/26 01:39:42;;;;;;;3.70;1.10;;;11.90;90.90;;;;;;5065677;28;20313;-71
2022/09/26 01:42:27;;;;;;;5.07;1.10;;;12.00;91.10;;;;;;5068406;28;20286;-71
2022/09/26 01:45:04;;;;;;;5.47;1.52;;;12.00;91.80;;;;;;5052646;28;20309;-71
2022/09/26 01:47:45;;;;;;;4.40;1.43;;;11.90;92.40;;;;;;5060669;28;20059;-71
2022/09/26 01:50:39;;;;;;;4.43;1.50;;;11.90;92.40;;;;;;5049196;28;20309;-71
2022/09/26 01:53:05;;;;;;;3.67;1.50;;;11.90;93.00;;;;;;5068906;28;20336;-71
2022/09/26 01:55:40;;;;;;;3.23;1.57;;;11.90;93.20;;;;;;5065372;28;20846;-71
2022/09/26 01:58:12;;;;;;;6.40;1.37;;;11.90;93.40;;;;;;5041137;28;20036;-71
2022/09/26 02:00:40;;;;;;;6.87;1.43;;;11.90;93.40;;;;;;5053241;28;20274;-71
2022/09/26 02:03:12;;;;;;;7.27;1.47;;;11.90;93.60;;;;;;5070356;28;20275;-71
2022/09/26 02:05:43;;;;;;;4.23;1.10;;;11.90;94.00;;;;;;5068483;28;20365;-71
2022/09/26 02:08:19;;;;;;;5.67;1.23;;;11.90;94.10;;;;;;5048915;28;20366;-71
2022/09/26 02:10:51;;;;;;;3.30;1.27;;;11.80;94.30;;;;;;5059813;28;20291;-71
2022/09/26 02:13:22;;;;;;;3.77;1.43;;;11.80;94.30;;;;;;5064439;28;20674;-71
2022/09/26 02:15:52;;;;;;;8.20;1.73;;;11.80;95.00;;;;;;5065286;28;20349;-71
2022/09/26 02:18:36;;;;;;;4.47;1.70;;;11.80;95.00;;;;;;5064532;28;20275;-71
2022/09/26 02:21:25;;;;;;;5.63;1.80;;;11.80;95.20;;;;;;5062506;28;20854;-71
2022/09/26 02:23:53;;;;;;;5.67;1.70;;;11.80;95.40;;;;;;5063058;28;20374;-71
2022/09/26 02:26:19;;;;;;;6.13;1.67;;;11.80;95.50;;;;;;5048017;28;20663;-72
2022/09/26 02:28:45;;;;;;;4.27;1.40;;;11.70;95.80;;;;;;5044906;28;20901;-71
2022/09/26 02:31:15;;;;;;;3.97;2.00;;;11.70;95.80;;;;;;5045316;28;20287;-71
2022/09/26 02:33:41;;;;;;;6.67;2.07;;;11.70;96.10;;;;;;5062022;28;20303;-71
2022/09/26 02:36:09;;;;;;;4.70;1.50;;;11.70;96.20;;;;;;5031596;28;20292;-71
2022/09/26 02:38:36;;;;;;;5.53;2.17;;;11.70;96.40;;;;;;5064363;28;20063;-71
2022/09/26 02:41:28;;;;;;;2.87;1.87;;;11.70;96.40;;;;;;5064651;28;20282;-71
2022/09/26 02:44:21;;;;;;;4.63;2.20;;;11.70;96.60;;;;;;5058799;28;20639;-71
2022/09/26 02:47:16;;;;;;;5.30;2.37;;;11.70;96.50;;;;;;5063373;28;20313;-71
2022/09/26 02:50:00;;;;;;;4.63;2.30;;;11.70;96.70;;;;;;5041952;28;20278;-71
2022/09/26 02:53:04;;;;;;;7.93;2.40;;;11.70;96.60;;;;;;5064579;28;20631;-71
2022/09/26 02:55:56;;;;;;;3.77;1.97;;;11.80;96.60;;;;;;5041774;28;20329;-71
2022/09/26 02:58:46;;;;;;;5.23;2.00;;;11.70;96.90;;;;;;5050537;28;20643;-71
2022/09/26 03:01:33;;;;;;;4.87;2.50;;;11.80;96.70;;;;;;5061422;28;20877;-71
2022/09/26 03:04:07;;;;;;;6.17;2.00;;;11.80;96.70;;;;;;5068754;28;20324;-71
2022/09/26 03:06:41;;;;;;;4.90;2.13;;;11.80;96.80;;;;;;5069446;28;20283;-71
2022/09/26 03:09:08;;;;;;;4.53;2.20;;;11.80;96.80;;;;;;5072137;28;20710;-71
2022/09/26 03:11:34;;;;;;;5.43;2.73;;;11.80;96.50;;;;;;5052926;28;20294;-71
2022/09/26 03:14:01;;;;;;;5.00;1.80;;;11.70;96.80;;;;;;5065110;28;20303;-71
2022/09/26 03:16:32;;;;;;;6.07;2.20;;;11.70;96.60;;;;;;5053255;28;20332;-71
2022/09/26 03:19:33;;;;;;;5.57;2.10;;;11.70;97.00;;;;;;5068671;28;20282;-71
2022/09/26 03:21:59;;;;;;;4.53;1.90;;;11.70;97.20;;;;;;5068210;28;20276;-69
2022/09/26 03:24:25;;;;;;;3.77;1.60;;;11.80;97.10;;;;;;5065878;28;20287;-68
2022/09/26 03:26:52;;;;;;;6.30;2.10;;;11.80;97.00;;;;;;5050780;28;20047;-69
2022/09/26 03:29:18;;;;;;;4.77;2.20;;;11.70;96.90;;;;;;5072996;28;20282;-68
2022/09/26 03:31:45;;;;;;;6.47;2.30;;;11.70;97.20;;;;;;5040853;28;20293;-68
2022/09/26 03:34:11;;;;;;;5.57;2.60;;;11.70;97.00;;;;;;5068654;28;20683;-68
2022/09/26 03:36:38;;;;;;;4.40;2.13;;;11.70;97.20;;;;;;5067768;28;21079;-69
2022/09/26 03:39:04;;;;;;;4.80;2.23;;;11.60;97.30;;;;;;5049358;28;20279;-69
2022/09/26 03:41:30;;;;;;;4.53;2.00;;;11.60;97.40;;;;;;5045607;28;20282;-69
2022/09/26 03:43:56;;;;;;;5.43;2.27;;;11.60;97.50;;;;;;5068194;28;20152;-69
2022/09/26 03:46:23;;;;;;;7.00;2.40;;;11.60;97.40;;;;;;5051128;28;20043;-69
2022/09/26 03:48:49;;;;;;;5.40;2.10;;;11.60;97.70;;;;;;5066702;28;20325;-68
2022/09/26 03:51:16;;;;;;;3.73;2.10;;;11.50;97.80;;;;;;5034661;28;20318;-68
2022/09/26 03:53:45;;;;;;;4.80;1.83;;;11.50;97.70;;;;;;5051876;28;20310;-69
2022/09/26 03:56:14;;;;;;;3.93;1.93;;;11.50;97.90;;;;;;5058931;28;20854;-69
2022/09/26 03:58:41;;;;;;;6.33;1.97;;;11.40;98.00;;;;;;5085150;28;20275;-69
2022/09/26 04:01:09;;;;;;;5.60;1.90;;;11.40;97.90;;;;;;5050585;28;20289;-70
2022/09/26 04:03:36;;;;;;;5.87;2.13;;;11.40;97.60;;;;;;5054838;28;20301;-71
2022/09/26 04:06:03;;;;;;;5.80;2.33;;;11.40;97.60;;;;;;5066932;28;20287;-71
2022/09/26 04:08:30;;;;;;;3.73;1.73;;;11.40;97.60;;;;;;5052850;28;20339;-71
2022/09/26 04:11:01;;;;;;;4.37;1.90;;;11.40;97.40;;;;;;5061665;28;20378;-71
2022/09/26 04:13:26;;;;;;;7.50;1.70;;;11.30;97.10;;;;;;5047695;28;20370;-71
2022/09/26 04:15:56;;;;;;;5.37;1.97;;;11.30;97.20;;;;;;5050863;28;20362;-71
2022/09/26 04:18:22;;;;;;;5.37;1.60;;;11.30;97.20;;;;;;5053141;28;20047;-71
2022/09/26 04:20:48;;;;;;;6.53;2.03;;;11.30;96.80;;;;;;5033556;28;20275;-71
2022/09/26 04:23:13;;;;;;;5.17;1.93;;;11.20;96.90;;;;;;5083625;28;20044;-71
2022/09/26 04:25:39;;;;;;;6.47;2.40;;;11.30;97.00;;;;;;5037736;28;20094;-71
2022/09/26 04:28:05;;;;;;;5.90;2.33;;;11.20;97.00;;;;;;5052985;28;20053;-71
2022/09/26 04:30:30;;;;;;;3.77;1.93;;;11.20;96.90;;;;;;5064108;28;20083;-71
2022/09/26 04:32:56;;;;;;;6.27;2.20;;;11.10;97.20;;;;;;5051413;28;20044;-71
2022/09/26 04:35:24;;;;;;;4.47;2.00;;;11.10;97.10;;;;;;5067140;28;20044;-71
2022/09/26 04:37:50;;;;;;;7.43;2.70;;;11.10;97.20;;;;;;5049954;28;20039;-71
2022/09/26 04:40:16;;;;;;;8.07;2.30;;;11.10;97.50;;;;;;5050749;28;20861;-71
2022/09/26 04:42:41;;;;;;;4.47;2.43;;;11.10;97.20;;;;;;5065972;28;20420;-71
2022/09/26 04:45:08;;;;;;;6.67;2.67;;;11.10;97.60;;;;;;5066580;28;20051;-71
2022/09/26 04:47:33;;;;;;;4.57;2.23;;;11.10;97.60;;;;;;5054053;28;20082;-71
2022/09/26 04:50:00;;;;;;;4.77;2.47;;;11.10;97.60;;;;;;5062596;28;20283;-71
2022/09/26 04:52:25;;;;;;;7.80;2.57;;;11.10;97.60;;;;;;5063776;28;20120;-71
2022/09/26 04:54:51;;;;;;;4.87;2.60;;;11.10;97.70;;;;;;5050271;28;20385;-71
2022/09/26 04:57:17;;;;;;;4.17;2.03;;;11.10;97.70;;;;;;5047877;28;20037;-71
2022/09/26 04:59:43;;;;;;;5.73;2.30;;;11.10;98.00;;;;;;5050312;28;20101;-71
2022/09/26 05:02:09;;;;;;;9.40;2.43;;;11.10;97.90;;;;;;5041677;28;20284;-71
2022/09/26 05:04:34;;;;;;;5.70;3.03;;;11.10;98.10;;;;;;5062687;28;20044;-71
2022/09/26 05:07:00;;;;;;;4.87;2.70;;;11.10;98.10;;;;;;5047990;28;20047;-71
2022/09/26 05:09:26;;;;;;;9.03;3.10;;;11.10;98.40;;;;;;5065893;28;20078;-71
2022/09/26 05:11:52;;;;;;;7.03;2.80;;;11.10;98.30;;;;;;5052130;28;20108;-71
2022/09/26 05:14:18;;;;;;;6.10;2.73;;;11.10;98.20;;;;;;5049306;28;20051;-71
2022/09/26 05:16:43;;;;;;;6.47;3.10;;;11.10;98.40;;;;;;5065233;28;20048;-71
2022/09/26 05:19:09;;;;;;;5.50;2.60;;;11.10;98.40;;;;;;5044581;28;20815;-71
2022/09/26 05:21:35;;;;;;;7.63;2.97;;;11.10;98.40;;;;;;5051978;28;20393;-71
2022/09/26 05:26:48;;;;;;;6.45;2.47;;;11.10;98.30;;;;;;5071741;28;20143;-71
2022/09/26 05:29:15;;;;;;;7.20;2.80;;;11.10;98.60;;;;;;5065281;28;20036;-71
2022/09/26 05:31:41;;;;;;;7.40;2.40;;;11.10;98.50;;;;;;5046111;28;20366;-71
2022/09/26 05:34:11;;;;;;;5.93;2.50;;;11.10;98.50;;;;;;5072081;28;21101;-71
2022/09/26 05:36:38;;;;;;;5.47;3.03;;;11.10;98.60;;;;;;5048656;28;20283;-71
2022/09/26 05:40:55;;;;;;;5.50;2.77;;;11.10;98.50;;;;;;5048881;28;20314;-71
2022/09/26 05:41:52;;;;;;;3.97;2.63;;;11.10;98.50;;;;;;5061894;28;20279;-71
2022/09/26 05:44:18;;;;;;;5.33;2.50;;;11.10;98.70;;;;;;5065681;28;20291;-71
2022/09/26 05:46:45;;;;;;;6.07;2.73;;;11.10;98.90;;;;;;5045383;28;20683;-71
2022/09/26 05:49:13;;;;;;;5.07;2.20;;;11.10;98.90;;;;;;5062278;28;20686;-71
2022/09/26 05:51:40;;;;;;;4.30;2.77;;;11.10;98.70;;;;;;5069225;28;20592;-71
2022/09/26 05:54:06;;;;;;;7.37;2.40;;;11.20;98.50;;;;;;5031973;28;20901;-71
2022/09/26 05:56:31;;;;;;;5.00;2.30;;;11.20;98.40;;;;;;5073317;28;20366;-71
2022/09/26 05:58:57;;;;;;;8.37;2.63;;;11.20;98.20;;;;;;5065291;28;20037;-71
2022/09/26 06:01:23;;;;;;;5.47;2.70;;;11.20;98.00;;;;;;5048106;28;20043;-71
2022/09/26 06:03:49;;;;;;;4.93;2.47;;;11.20;97.80;;;;;;5044798;28;20112;-71
2022/09/26 06:06:19;;;;;;;6.03;2.27;;;11.10;97.90;;;;;;5042981;28;20045;-71
2022/09/26 06:08:45;;;;;;;4.90;2.60;;;11.20;97.70;;;;;;5048871;28;20049;-71
2022/09/26 06:11:13;;;;;;;6.13;2.73;;;11.20;97.40;;;;;;5057514;28;20834;-71
2022/09/26 06:13:42;;;;;;;4.25;2.05;;;11.10;97.40;;;;;;5065040;28;20329;-71
2022/09/26 06:16:12;;;;;;;4.57;2.70;;;11.10;97.20;;;;;;5065251;28;20049;-71
2022/09/26 06:18:38;;;;;;;6.43;2.80;;;11.10;97.20;;;;;;5025598;28;20278;-71
2022/09/26 06:21:06;;;;;;;6.63;2.60;;;11.10;96.80;;;;;;5047696;28;20282;-71
2022/09/26 06:23:35;;;;;;;7.57;2.70;;;11.10;96.90;;;;;;5068571;28;20282;-71
2022/09/26 06:26:03;;;;;;;5.63;2.17;;;11.10;96.50;;;;;;5062880;28;20297;-71
2022/09/26 06:28:30;;;;;;;5.53;2.50;;;11.10;96.80;;;;;;5046847;28;20778;-71
2022/09/26 06:30:56;;;;;;;5.90;2.77;;;11.10;96.40;;;;;;5082164;28;20775;-71
2022/09/26 06:33:22;;;;;;;7.97;2.63;;;11.10;96.30;;;;;;5069193;28;20346;-71
2022/09/26 06:36:02;;;;;;;7.37;2.87;;;11.10;95.90;;;;;;5048893;28;20287;-71
2022/09/26 06:38:28;;;;;;;5.97;3.00;;;11.10;95.60;;;;;;5047911;28;20373;-71
2022/09/26 06:40:54;;;;;;;6.13;2.97;;;11.10;95.50;;;;;;5060805;28;20370;-71
2022/09/26 06:43:20;;;;;;;4.87;2.90;;;11.10;95.40;;;;;;5044903;28;20549;-71
2022/09/26 06:45:47;;;;;;;6.70;2.70;;;11.10;95.00;;;;;;5083672;28;20044;-71
2022/09/26 06:48:14;;;;;;;4.83;2.90;;;11.10;95.20;;;;;;5057148;28;20293;-71
2022/09/26 06:50:40;;;;;;;5.17;3.00;;;11.20;94.90;;;;;;5032403;28;20302;-71
2022/09/26 06:53:06;;;;;;;6.23;2.50;;;11.20;94.70;;;;;;5034126;28;20352;-71
2022/09/26 06:55:32;;;;;;;7.97;3.47;;;11.20;94.50;;;;;;5055355;28;20039;-71
2022/09/26 06:57:57;;;;;;;5.43;2.80;;;11.20;94.20;;;;;;5062518;28;20713;-71
2022/09/26 07:00:24;;;;;;;8.67;3.13;;;11.20;94.00;;;;;;5046926;28;20124;-72
2022/09/26 07:02:52;;;;;;;7.73;3.10;;;11.20;94.00;;;;;;5045085;28;20471;-71
2022/09/26 07:05:19;;;;;;;5.67;2.47;;;11.30;93.60;;;;;;5065069;28;20688;-71
2022/09/26 07:07:46;;;;;;;4.73;2.30;;;11.30;93.70;;;;;;5065594;28;20286;-71
2022/09/26 07:10:13;;;;;;;9.77;3.17;;;11.30;93.20;;;;;;5080627;28;20659;-71
2022/09/26 07:12:47;;;;;;;5.40;2.50;;;11.30;93.00;;;;;;5047372;28;20279;-71
2022/09/26 07:15:16;;;;;;;7.20;2.97;;;11.30;92.80;;;;;;5071227;28;20287;-71
2022/09/26 07:17:43;;;;;;;5.80;2.03;;;11.40;92.60;;;;;;5047695;28;20064;-71
2022/09/26 07:20:15;;;;;;;10.23;3.30;;;11.40;92.50;;;;;;5069403;28;20282;-71
2022/09/26 07:22:42;;;;;;;7.77;2.70;;;11.40;92.50;;;;;;5060641;28;20320;-71
2022/09/26 07:25:09;;;;;;;7.97;2.47;;;11.40;92.40;;;;;;5063823;28;20303;-71
2022/09/26 07:27:35;;;;;;;6.50;2.50;;;11.40;92.20;;;;;;5040974;28;20699;-71
2022/09/26 07:30:01;;;;;;;3.73;2.30;;;11.40;92.20;;;;;;5058098;28;20352;-71
2022/09/26 07:32:30;;;;;;;5.70;1.90;;;11.40;92.00;;;;;;5063147;28;20087;-71
2022/09/26 07:34:58;;;;;;;3.83;1.67;;;11.40;91.90;;;;;;5046972;28;20310;-71
2022/09/26 07:37:24;;;;;;;5.43;2.23;;;11.40;92.00;;;;;;5033053;28;20337;-72
2022/09/26 07:39:50;;;;;;;8.50;2.40;;;11.50;91.90;;;;;;5050496;28;20274;-71
2022/09/26 07:42:16;;;;;;;4.83;1.97;;;11.50;91.80;;;;;;5052463;28;20347;-71
2022/09/26 07:44:43;;;;;;;5.30;2.37;;;11.60;91.40;;;;;;5069159;28;20041;-71
2022/09/26 07:52:38;;;;;;;6.17;2.17;;;11.70;90.50;;;;;;5073577;28;20286;-71
2022/09/26 07:55:05;;;;;;;6.33;1.70;;;11.80;90.60;;;;;;5046333;28;20303;-71
2022/09/26 07:57:33;;;;;;;9.40;1.77;;;11.90;90.30;;;;;;5064349;28;20293;-71
2022/09/26 07:59:59;;;;;;;6.00;1.83;;;12.00;90.30;;;;;;5028497;28;20790;-71
2022/09/26 08:02:31;;;;;;;6.83;1.83;;;12.10;89.50;;;;;;5049567;28;20286;-72
2022/09/26 08:04:57;;;;;;;5.93;1.80;;;12.10;89.10;;;;;;5060636;28;20281;-71
2022/09/26 08:07:23;;;;;;;5.97;2.33;;;12.10;88.90;;;;;;5055732;28;20290;-70
2022/09/26 08:09:52;;;;;;;3.83;2.33;;;12.10;89.00;;;;;;5067746;28;20309;-72
2022/09/26 08:12:18;;;;;;;8.13;2.20;;;12.10;88.90;;;;;;5043410;28;20291;-71
2022/09/26 08:14:48;;;;;;;5.23;1.83;;;12.10;89.00;;;;;;5028759;28;20860;-70
2022/09/26 08:17:17;;;;;;;4.47;1.90;;;12.20;88.20;;;;;;5051284;28;20141;-70
2022/09/26 08:19:43;;;;;;;6.20;1.90;;;12.20;88.20;;;;;;5062357;28;20287;-70
2022/09/26 08:22:10;;;;;;;4.33;1.40;;;12.20;88.10;;;;;;5066125;28;20279;-71
2022/09/26 08:24:36;;;;;;;4.33;1.77;;;12.20;88.30;;;;;;5050573;28;20052;-72
2022/09/26 08:27:01;;;;;;;4.63;1.90;;;12.20;88.20;;;;;;5043710;28;20397;-71
2022/09/26 08:29:30;;;;;;;6.77;1.77;;;12.30;87.80;;;;;;5047416;28;20310;-71
2022/09/26 08:31:57;;;;;;;3.03;1.63;;;12.30;87.40;;;;;;5062001;28;20099;-71
2022/09/26 08:34:23;;;;;;;4.70;1.40;;;12.30;87.40;;;;;;5033926;28;20399;-71
2022/09/26 08:36:53;;;;;;;3.73;2.00;;;12.40;87.70;;;;;;5045436;28;20469;-71
2022/09/26 08:39:20;;;;;;;6.20;1.60;;;12.50;87.80;;;;;;5047689;28;20508;-72
2022/09/26 08:41:55;;;;;;;3.97;1.70;;;12.60;87.70;;;;;;5064127;28;20294;-71
2022/09/26 08:44:40;;;;;;;4.17;1.80;;;12.60;87.40;;;;;;5065433;28;20398;-72
2022/09/26 08:47:10;;;;;;;6.10;1.90;;;12.70;87.50;;;;;;5066272;28;20314;-71
2022/09/26 08:50:00;;;;;;;4.27;2.00;;;12.70;87.10;;;;;;5064882;28;20485;-72
2022/09/26 08:52:44;;;;;;;6.27;1.80;;;12.70;86.90;;;;;;5067958;28;20641;-72
2022/09/26 08:55:18;;;;;;;8.00;2.33;;;12.70;86.90;;;;;;5047623;28;20294;-72
2022/09/26 08:58:17;;;;;;;3.90;2.30;;;12.60;87.60;;;;;;5063732;28;20286;-72
2022/09/26 09:00:45;;;;;;;6.07;2.13;;;12.60;88.60;;;;;;5064360;28;20087;-72
2022/09/26 09:03:19;;;;;;;5.60;2.43;;;12.50;89.50;;;;;;5049707;28;20279;-72
2022/09/26 09:05:50;;;;;;;5.53;2.63;;;12.40;90.20;;;;;;5069009;28;20283;-71
2022/09/26 09:08:21;;;;;;;8.57;2.40;;;12.30;90.90;;;;;;5051613;28;20055;-71
2022/09/26 09:11:11;;;;;;;5.20;2.80;;;12.10;91.70;;;;;;5049850;28;20297;-72
2022/09/26 09:13:46;;;;;;;4.43;2.37;;;12.00;92.80;;;;;;5053258;28;20405;-72
2022/09/26 09:16:38;;;;;;;6.18;2.60;;;11.90;93.40;;;;;;5050207;28;20339;-72
2022/09/26 09:19:16;;;;;;;7.20;3.07;;;11.80;93.90;;;;;;5051214;28;20542;-71
2022/09/26 09:21:44;;;;;;;7.27;2.90;;;11.80;94.40;;;;;;5067291;28;20368;-71
2022/09/26 09:24:44;;;;;;;4.43;2.63;;;11.80;95.10;;;;;;5060036;28;20286;-72
2022/09/26 09:27:45;;;;;;;5.97;3.23;;;11.80;95.40;;;;;;5057663;28;20333;-72
2022/09/26 09:30:37;;;;;;;9.80;3.77;;;11.70;95.50;;;;;;4985548;28;20368;-72
2022/09/26 09:33:17;;;;;;;6.87;3.03;;;11.60;95.60;;;;;;5062730;28;20363;-71
2022/09/26 09:35:48;;;;;;;8.47;3.47;;;11.60;96.30;;;;;;5038409;28;20322;-71
2022/09/26 09:38:17;;;;;;;4.30;2.93;;;11.70;96.60;;;;;;5049734;28;20719;-71
2022/09/26 09:40:58;;;;;;;5.77;3.20;;;11.70;96.70;;;;;;5065822;28;20348;-71
2022/09/26 09:43:30;;;;;;;8.23;3.10;;;11.80;96.30;;;;;;5064648;28;20290;-72
2022/09/26 09:46:16;;;;;;;7.03;3.37;;;11.70;96.20;;;;;;5053428;28;20938;-71
2022/09/26 09:48:45;;;;;;;6.80;3.50;;;11.70;96.60;;;;;;5050061;28;20290;-71
2022/09/26 09:51:32;;;;;;;6.20;3.80;;;11.80;96.60;;;;;;5047788;28;20282;-71
2022/09/26 09:54:17;;;;;;;6.53;3.30;;;11.80;97.10;;;;;;5067442;28;20499;-71
2022/09/26 09:56:58;;;;;;;5.40;3.07;;;11.90;97.20;;;;;;5060161;28;20288;-71
2022/09/26 09:59:23;;;;;;;8.93;4.00;;;11.80;97.40;;;;;;5067699;28;20278;-71
2022/09/26 10:02:06;;;;;;;9.50;4.27;;;11.90;97.70;;;;;;5050320;28;20278;-71
2022/09/26 10:04:42;;;;;;;8.53;3.60;;;11.90;97.80;;;;;;5048849;28;20033;-71
2022/09/26 10:07:09;;;;;;;5.70;3.80;;;11.80;97.70;;;;;;5064228;28;20318;-71
2022/09/26 10:09:40;;;;;;;9.90;4.30;;;11.90;98.00;;;;;;5069510;28;20347;-71
2022/09/26 10:12:15;;;;;;;8.70;3.33;;;11.90;98.30;;;;;;5046293;28;20305;-71
2022/09/26 10:14:54;;;;;;;4.85;3.38;;;11.80;98.30;;;;;;5062384;28;20802;-71
2022/09/26 10:17:21;;;;;;;8.00;3.70;;;11.90;98.20;;;;;;5046210;28;20068;-71
2022/09/26 10:19:48;;;;;;;9.07;4.10;;;11.90;98.50;;;;;;5064300;28;20282;-71
2022/09/26 10:22:36;;;;;;;7.07;4.60;;;11.90;98.70;;;;;;5064179;28;20635;-71
2022/09/26 10:25:07;;;;;;;9.03;4.20;;;11.90;98.90;;;;;;5045228;28;20323;-70
2022/09/26 10:27:39;;;;;;;5.97;4.17;;;11.90;98.70;;;;;;5050963;28;20345;-72
2022/09/26 10:30:17;;;;;;;7.20;4.40;;;12.00;99.00;;;;;;5062912;28;20321;-72
2022/09/26 10:32:46;;;;;;;8.03;4.20;;;11.90;98.90;;;;;;5063707;28;20983;-71
2022/09/26 10:35:25;;;;;;;7.00;4.53;;;11.90;99.20;;;;;;5071130;28;20398;-71
2022/09/26 10:38:02;;;;;;;8.00;4.50;;;12.00;99.40;;;;;;5078285;28;20283;-71
2022/09/26 10:40:45;;;;;;;7.03;4.27;;;12.00;99.30;;;;;;5066531;28;20275;-71
2022/09/26 10:43:23;;;;;;;5.80;4.70;;;12.00;99.60;;;;;;5055879;28;20317;-71
2022/09/26 10:45:53;;;;;;;7.30;3.73;;;12.00;99.70;;;;;;5065497;28;20383;-72
2022/09/26 10:48:26;;;;;;;7.83;4.40;;;12.00;99.70;;;;;;5047940;28;20365;-71
2022/09/26 10:50:59;;;;;;;7.30;3.80;;;11.90;99.70;;;;;;5068039;28;20274;-72
2022/09/26 10:53:34;;;;;;;5.07;4.00;;;11.90;99.90;;;;;;5051459;28;20353;-72
2022/09/26 10:56:04;;;;;;;;;;;12.00;99.90;;;;;;5058153;28;20282;-72
2022/09/26 10:58:31;;;;;;;5.07;3.93;;;12.00;99.90;;;;;;5067334;28;19965;-72
2022/09/26 11:00:59;;;;;;;5.57;4.00;;;12.10;99.90;;;;;;5070254;28;20596;-70
2022/09/26 11:03:39;;;;;;;5.10;3.53;;;12.20;99.90;;;;;;5061548;28;20278;-70
2022/09/26 11:06:19;;;;;;;6.67;3.67;;;12.10;99.90;;;;;;5065753;28;20286;-72
2022/09/26 11:08:51;;;;;;;4.80;3.53;;;12.20;99.90;;;;;;5069290;28;20737;-71
2022/09/26 11:11:20;;;;;;;4.37;3.30;;;12.20;99.90;;;;;;5045763;28;20282;-72
2022/09/26 11:13:55;;;;;;;5.77;3.57;;;12.20;99.90;;;;;;5064619;28;20825;-72
2022/09/26 11:16:21;;;;;;;5.85;3.35;;;12.20;99.90;;;;;;5051178;28;20282;-72
2022/09/26 11:19:00;;;;;;;4.27;3.00;;;12.20;99.90;;;;;;5066599;28;20051;-71
2022/09/26 11:21:45;;;;;;;5.77;3.17;;;12.20;99.90;;;;;;5068169;28;20731;-72
2022/09/26 11:24:36;;;;;;;4.70;3.17;;;12.30;99.90;;;;;;5058641;28;20783;-72
2022/09/26 11:27:20;;;;;;;5.20;3.50;;;12.30;99.90;;;;;;5041999;28;20048;-72
2022/09/26 11:29:54;;;;;;;5.07;3.70;;;12.40;99.90;;;;;;5050642;28;20730;-72
2022/09/26 11:32:41;;;;;;;5.00;3.80;;;12.40;99.90;;;;;;5068021;28;20282;-71
2022/09/26 11:35:28;;;;;;;6.93;3.90;;;12.50;99.90;;;;;;5046933;28;20496;-72
2022/09/26 11:38:22;;;;;;;5.23;4.03;;;12.50;99.90;;;;;;5065678;28;20282;-72
2022/09/26 11:41:13;;;;;;;4.43;3.97;;;12.70;99.90;;;;;;5072656;28;20365;-72
2022/09/26 11:43:52;;;;;;;7.33;4.63;;;12.80;99.90;;;;;;5051170;28;20329;-72
2022/09/26 11:46:26;;;;;;;7.13;4.23;;;13.00;99.90;;;;;;5075525;28;20293;-72
2022/09/26 11:49:09;;;;;;;4.80;4.10;;;13.20;99.90;;;;;;5065525;28;20318;-72
2022/09/26 11:52:13;;;;;;;4.57;3.43;;;13.30;99.90;;;;;;5068202;28;20286;-72
2022/09/26 11:55:02;;;;;;;6.50;3.80;;;13.50;99.90;;;;;;5004985;28;20308;-72
2022/09/26 11:57:48;;;;;;;5.03;3.30;;;13.60;99.90;;;;;;5045385;28;20865;-72
2022/09/26 12:00:28;;;;;;;8.57;3.10;;;13.60;99.90;;;;;;5051878;28;20271;-72
2022/09/26 12:03:06;;;;;;;4.07;2.77;;;13.70;99.90;;;;;;5069167;28;20477;-72
2022/09/26 12:06:00;;;;;;;4.10;3.00;;;13.70;99.90;;;;;;5062344;28;20279;-71
2022/09/26 12:08:48;;;;;;;3.17;2.60;;;13.70;99.90;;;;;;5058732;28;20627;-72
2022/09/26 12:11:23;;;;;;;5.43;2.93;;;13.70;99.90;;;;;;5068937;28;20275;-71
2022/09/26 12:13:52;;;;;;;3.28;2.40;;;13.90;99.90;;;;;;5072452;28;20302;-71
2022/09/26 12:16:24;;;;;;;4.50;2.20;;;14.00;99.90;;;;;;5070057;28;20045;-72
2022/09/26 12:19:19;;;;;;;2.60;2.23;;;14.20;99.50;;;;;;5050127;28;20287;-72
2022/09/26 12:22:28;;;;;;;3.87;2.70;;;14.30;99.00;;;;;;5066901;28;20314;-72
2022/09/26 12:25:04;;;;;;;4.90;2.13;;;14.20;98.20;;;;;;5067673;28;20336;-72
2022/09/26 12:27:37;;;;;;;2.80;1.67;;;14.20;98.40;;;;;;5065979;28;20311;-72
2022/09/26 12:30:20;;;;;;;2.73;1.27;;;14.10;98.10;;;;;;5051692;28;20405;-72
2022/09/26 12:32:55;;;;;;;4.00;1.30;;;14.10;97.40;;;;;;5067842;28;20282;-72
2022/09/26 12:35:44;;;;;;;4.72;1.63;;;14.10;97.10;;;;;;5063006;28;20361;-72
2022/09/26 12:38:32;;;;;;;2.93;1.20;;;14.00;97.10;;;;;;5067028;28;20437;-73
2022/09/26 12:41:03;;;;;;;2.23;0.80;;;14.00;97.10;;;;;;5048413;28;20742;-72
2022/09/26 12:43:46;;;;;;;5.70;1.30;;;14.00;97.50;;;;;;5050714;28;20646;-73
2022/09/26 12:46:26;;;;;;;3.13;1.53;;;14.00;97.70;;;;;;5064318;28;20286;-72
2022/09/26 12:49:03;;;;;;;2.00;1.13;;;14.10;97.60;;;;;;5072521;28;20671;-72
2022/09/26 12:51:46;;;;;;;2.20;1.20;;;14.20;97.60;;;;;;5067177;28;20428;-72
2022/09/26 12:54:47;;;;;;;2.43;1.03;;;14.30;97.70;;;;;;5067446;28;20306;-72
2022/09/26 12:57:37;;;;;;;4.17;1.10;;;14.40;97.30;;;;;;5057428;28;20285;-72
2022/09/26 13:00:21;;;;;;;2.03;1.00;;;14.50;96.70;;;;;;5065920;28;20291;-72
2022/09/26 13:03:15;;;;;;;4.15;1.27;;;14.80;97.30;;;;;;5063931;28;20635;-71
2022/09/26 13:06:02;;;;;;;3.57;1.30;;;15.10;96.70;;;;;;5044799;28;20336;-70
2022/09/26 13:08:57;;;;;;;4.30;1.23;;;15.30;95.90;;;;;;5068850;28;20376;-69
2022/09/26 13:11:38;;;;;;;2.97;1.30;;;15.40;92.40;;;;;;5068391;28;20361;-69
2022/09/26 13:14:30;;;;;;;7.10;1.83;;;15.30;91.10;;;;;;5067088;28;20318;-69
2022/09/26 13:17:12;;;;;;;3.93;0.80;;;15.20;89.70;;;;;;5061557;28;20405;-69
2022/09/26 13:19:55;;;;;;;4.43;1.03;;;15.20;88.30;;;;;;5047156;28;20783;-69
2022/09/26 13:22:39;;;;;;;3.90;0.93;;;15.10;87.30;;;;;;5063544;28;20366;-69
2022/09/26 13:25:43;;;;;;;5.23;0.63;;;15.10;86.80;;;;;;5045410;28;20299;-69
2022/09/26 13:28:19;;;;;;;5.17;0.90;;;15.10;85.80;;;;;;5028474;28;20294;-69
2022/09/26 13:30:50;;;;;;;6.70;0.97;;;15.20;84.20;;;;;;5053487;28;20789;-69